createdAt,value
2019-02-02T00:01:10.580Z,96152.22
2019-02-02T00:03:37.124Z,96152.26
2019-02-02T00:06:04.497Z,96154.84
2019-02-02T00:08:30.967Z,96156.58
2019-02-02T00:10:57.516Z,96154.84
2019-02-02T00:13:24.250Z,96153.15
2019-02-02T00:15:51.077Z,96152.70
2019-02-02T00:18:17.551Z,96145.81
2019-02-02T00:20:44.075Z,96140.20
2019-02-02T00:23:10.852Z,96136.32
2019-02-02T00:25:38.058Z,96130.27
2019-02-02T00:28:04.731Z,96134.14
2019-02-02T00:30:31.670Z,96144.87
2019-02-02T00:32:58.226Z,96144.40
2019-02-02T00:35:24.720Z,96145.20
2019-02-02T00:37:51.451Z,96133.14
2019-02-02T00:40:18.250Z,96130.08
2019-02-02T00:42:44.806Z,96128.26
2019-02-02T00:45:11.968Z,96126.52
2019-02-02T00:47:38.387Z,96147.27
2019-02-02T00:50:05.248Z,96154.61
2019-02-02T00:52:31.739Z,96158.89
2019-02-02T00:54:58.541Z,96164.05
2019-02-02T00:57:25.009Z,96165.34
2019-02-02T00:59:52.089Z,96152.91
2019-02-02T01:02:18.640Z,96160.26
2019-02-02T01:04:45.528Z,96161.59
2019-02-02T01:07:12.370Z,96162.48
2019-02-02T01:09:39.757Z,96171.92
2019-02-02T01:12:06.620Z,96172.81
2019-02-02T01:14:33.177Z,96177.13
2019-02-02T01:16:59.638Z,96174.17
2019-02-02T01:19:26.305Z,96171.15
2019-02-02T01:21:52.897Z,96171.11
2019-02-02T01:24:19.619Z,96179.22
2019-02-02T01:26:46.116Z,96170.19
2019-02-02T01:29:12.924Z,96161.52
2019-02-02T01:31:39.511Z,96166.23
2019-02-02T01:34:06.354Z,96173.98
2019-02-02T01:36:32.869Z,96164.94
2019-02-02T01:38:59.400Z,96163.25
2019-02-02T01:41:25.864Z,96169.70
2019-02-02T01:43:52.320Z,96163.25
2019-02-02T01:46:19.013Z,96160.66
2019-02-02T01:48:45.480Z,96164.53
2019-02-02T01:51:12.212Z,96170.59
2019-02-02T01:53:38.727Z,96177.94
2019-02-02T01:56:05.356Z,96171.03
2019-02-02T01:58:34.217Z,96167.59
2019-02-02T02:01:00.884Z,96169.30
2019-02-02T02:03:27.499Z,96171.95
2019-02-02T02:05:54.029Z,96172.88
2019-02-02T02:08:20.518Z,96168.16
2019-02-02T02:10:47.049Z,96165.61
2019-02-02T02:13:13.573Z,96167.31
2019-02-02T02:15:40.101Z,96168.61
2019-02-02T02:18:06.754Z,96177.23
2019-02-02T02:20:33.198Z,96157.87
2019-02-02T02:23:00.352Z,96149.69
2019-02-02T02:25:26.844Z,96144.07
2019-02-02T02:27:53.316Z,96142.30
2019-02-02T02:30:21.276Z,96150.05
2019-02-02T02:32:47.905Z,96151.34
2019-02-02T02:35:14.664Z,96156.09
2019-02-02T02:37:41.419Z,96151.78
2019-02-02T02:40:09.467Z,96160.01
2019-02-02T02:42:36.056Z,96156.58
2019-02-02T02:45:03.993Z,96154.00
2019-02-02T02:47:30.606Z,96154.84
2019-02-02T02:49:58.165Z,96163.03
2019-02-02T02:52:24.665Z,96166.06
2019-02-02T02:54:51.161Z,96168.64
2019-02-02T02:57:17.671Z,96147.98
2019-02-02T02:59:44.188Z,96150.64
2019-02-02T03:02:10.694Z,96151.94
2019-02-02T03:04:37.238Z,96161.45
2019-02-02T03:07:04.123Z,96166.20
2019-02-02T03:09:30.648Z,96166.61
2019-02-02T03:11:57.320Z,96155.80
2019-02-02T03:14:23.815Z,96151.56
2019-02-02T03:16:51.065Z,96137.04
2019-02-02T03:19:17.582Z,96144.94
2019-02-02T03:21:44.240Z,96154.52
2019-02-02T03:24:10.691Z,96157.17
2019-02-02T03:26:37.208Z,96163.62
2019-02-02T03:29:03.689Z,96171.38
2019-02-02T03:31:30.217Z,96173.48
2019-02-02T03:33:57.030Z,96160.94
2019-02-02T03:36:24.043Z,96165.18
2019-02-02T03:38:51.000Z,96162.97
2019-02-02T03:41:17.461Z,96156.03
2019-02-02T03:43:44.553Z,96150.43
2019-02-02T03:46:11.356Z,96157.69
2019-02-02T03:48:37.889Z,96155.11
2019-02-02T03:51:08.022Z,96153.45
2019-02-02T03:53:34.658Z,96156.03
2019-02-02T03:56:01.115Z,96148.77
2019-02-02T03:58:27.630Z,96147.48
2019-02-02T04:00:54.078Z,96140.62
2019-02-02T04:03:20.685Z,96138.95
2019-02-02T04:05:47.146Z,96146.19
2019-02-02T04:08:13.958Z,96150.95
2019-02-02T04:10:48.576Z,96147.55
2019-02-02T04:13:15.400Z,96142.42
2019-02-02T04:15:42.272Z,96136.82
2019-02-02T04:18:08.847Z,96141.09
2019-02-02T04:20:35.341Z,96156.99
2019-02-02T04:23:02.215Z,96171.67
2019-02-02T04:25:28.675Z,96179.86
2019-02-02T04:27:55.279Z,96179.82
2019-02-02T04:30:23.423Z,96172.96
2019-02-02T04:32:50.557Z,96190.15
2019-02-02T04:35:17.423Z,96208.62
2019-02-02T04:37:44.141Z,96208.66
2019-02-02T04:40:11.356Z,96209.55
2019-02-02T04:42:37.830Z,96194.05
2019-02-02T04:45:05.328Z,96190.63
2019-02-02T04:47:31.813Z,96194.53
2019-02-02T04:49:58.415Z,96191.92
2019-02-02T04:52:25.118Z,96187.16
2019-02-02T04:54:52.202Z,96182.41
2019-02-02T04:57:18.753Z,96182.84
2019-02-02T04:59:45.232Z,96176.80
2019-02-02T05:02:11.964Z,96186.23
2019-02-02T05:04:38.468Z,96194.87
2019-02-02T05:07:05.171Z,96199.19
2019-02-02T05:09:31.760Z,96192.32
2019-02-02T05:11:58.372Z,96194.49
2019-02-02T05:14:24.914Z,96183.73
2019-02-02T05:16:51.383Z,96182.00
2019-02-02T05:19:17.859Z,96189.73
2019-02-02T05:21:44.751Z,96205.23
2019-02-02T05:24:11.427Z,96206.11
2019-02-02T05:26:37.962Z,96209.98
2019-02-02T05:29:04.694Z,96204.38
2019-02-02T05:31:31.200Z,96207.81
2019-02-02T05:33:57.853Z,96213.86
2019-02-02T05:36:24.496Z,96219.05
2019-02-02T05:38:51.440Z,96218.17
2019-02-02T05:41:18.000Z,96219.87
2019-02-02T05:43:44.540Z,96224.22
2019-02-02T05:46:11.046Z,96227.20
2019-02-02T05:48:37.526Z,96223.74
2019-02-02T05:51:04.019Z,96211.24
2019-02-02T05:53:30.527Z,96196.59
2019-02-02T05:55:57.000Z,96192.73
2019-02-02T05:58:23.605Z,96192.32
2019-02-02T06:00:52.407Z,96199.70
2019-02-02T06:03:19.101Z,96205.37
2019-02-02T06:05:45.560Z,96218.23
2019-02-02T06:08:12.305Z,96219.94
2019-02-02T06:10:38.926Z,96223.77
2019-02-02T06:13:05.594Z,96225.06
2019-02-02T06:15:32.147Z,96227.23
2019-02-02T06:17:59.673Z,96219.53
2019-02-02T06:20:26.199Z,96229.04
2019-02-02T06:22:53.083Z,96248.81
2019-02-02T06:25:19.767Z,96266.06
2019-02-02T06:27:46.367Z,96269.05
2019-02-02T06:30:14.699Z,96281.95
2019-02-02T06:32:41.212Z,96288.84
2019-02-02T06:35:09.288Z,96293.16
2019-02-02T06:37:35.942Z,96288.81
2019-02-02T06:40:03.331Z,96280.22
2019-02-02T06:42:29.892Z,96272.41
2019-02-02T06:44:56.391Z,96283.55
2019-02-02T06:47:22.857Z,96276.31
2019-02-02T06:49:49.628Z,96275.91
2019-02-02T06:52:16.183Z,96281.07
2019-02-02T06:54:42.719Z,96288.81
2019-02-02T06:57:09.196Z,96289.66
2019-02-02T06:59:35.671Z,96295.67
2019-02-02T07:02:02.606Z,96277.20
2019-02-02T07:04:29.056Z,96269.08
2019-02-02T07:06:55.552Z,96284.13
2019-02-02T07:09:22.276Z,96293.16
2019-02-02T07:11:48.775Z,96288.41
2019-02-02T07:14:15.237Z,96278.48
2019-02-02T07:16:46.511Z,96281.95
2019-02-02T07:19:13.174Z,96275.91
2019-02-02T07:21:41.787Z,96284.06
2019-02-02T07:24:08.430Z,96289.63
2019-02-02T07:26:34.892Z,96295.27
2019-02-02T07:29:01.523Z,96292.72
2019-02-02T07:31:28.373Z,96294.86
2019-02-02T07:33:54.842Z,96301.25
2019-02-02T07:36:21.370Z,96298.66
2019-02-02T07:38:47.897Z,96302.09
2019-02-02T07:41:14.690Z,96306.81
2019-02-02T07:43:41.174Z,96310.22
2019-02-02T07:46:14.824Z,96333.83
2019-02-02T07:48:36.902Z,96328.66
2019-02-02T07:51:03.584Z,96334.65
2019-02-02T07:53:30.026Z,96344.06
2019-02-02T07:55:56.568Z,96360.81
2019-02-02T07:58:23.140Z,96371.11
2019-02-02T08:00:49.898Z,96378.79
2019-02-02T08:03:16.525Z,96393.41
2019-02-02T08:05:43.025Z,96401.13
2019-02-02T08:08:11.601Z,96411.36
2019-02-02T08:10:38.128Z,96411.33
2019-02-02T08:13:05.617Z,96400.46
2019-02-02T08:15:32.542Z,96392.23
2019-02-02T08:17:59.156Z,96385.72
2019-02-02T08:20:25.835Z,96384.39
2019-02-02T08:22:52.553Z,96386.09
2019-02-02T08:25:19.281Z,96379.94
2019-02-02T08:27:45.801Z,96382.90
2019-02-02T08:30:16.667Z,96386.70
2019-02-02T08:32:47.594Z,96386.98
2019-02-02T08:35:14.929Z,96386.06
2019-02-02T08:37:41.675Z,96395.00
2019-02-02T08:40:10.068Z,96402.69
2019-02-02T08:42:36.597Z,96412.55
2019-02-02T08:45:04.086Z,96431.49
2019-02-02T08:47:32.707Z,96429.25
2019-02-02T08:49:59.332Z,96431.36
2019-02-02T08:52:26.551Z,96426.66
2019-02-02T08:54:53.199Z,96421.49
2019-02-02T08:57:20.435Z,96419.62
2019-02-02T08:59:48.392Z,96413.05
2019-02-02T09:02:15.339Z,96418.95
2019-02-02T09:04:42.160Z,96428.70
2019-02-02T09:07:08.659Z,96440.72
2019-02-02T09:09:35.161Z,96448.55
2019-02-02T09:12:01.628Z,96464.03
2019-02-02T09:14:28.195Z,96457.67
2019-02-02T09:16:54.960Z,96442.20
2019-02-02T09:19:21.481Z,96447.81
2019-02-02T09:21:48.479Z,96439.91
2019-02-02T09:24:15.509Z,96450.55
2019-02-02T09:26:42.281Z,96463.19
2019-02-02T09:29:10.509Z,96469.61
2019-02-02T09:31:37.323Z,96476.05
2019-02-02T09:34:03.881Z,96476.83
2019-02-02T09:36:30.545Z,96469.50
2019-02-02T09:38:57.102Z,96460.02
2019-02-02T09:41:28.821Z,96456.94
2019-02-02T09:43:55.838Z,96455.17
2019-02-02T09:46:23.031Z,96453.98
2019-02-02T09:48:49.550Z,96460.90
2019-02-02T09:51:16.244Z,96460.34
2019-02-02T09:53:42.956Z,96456.72
2019-02-02T09:56:09.467Z,96459.56
2019-02-02T09:58:36.399Z,96457.34
2019-02-02T10:01:04.063Z,96456.02
2019-02-02T10:03:30.969Z,96447.88
2019-02-02T10:05:57.567Z,96445.29
2019-02-02T10:08:24.553Z,96446.11
2019-02-02T10:10:51.351Z,96450.47
2019-02-02T10:13:24.325Z,96470.77
2019-02-02T10:15:51.528Z,96466.48
2019-02-02T10:18:18.032Z,96472.02
2019-02-02T10:20:46.538Z,96474.91
2019-02-02T10:23:18.108Z,96469.91
2019-02-02T10:25:48.557Z,96472.05
2019-02-02T10:28:15.090Z,96472.05
2019-02-02T10:30:42.645Z,96478.53
2019-02-02T10:33:10.078Z,96481.52
2019-02-02T10:35:45.160Z,96485.14
2019-02-02T10:38:24.440Z,96498.52
2019-02-02T10:40:58.640Z,96498.97
2019-02-02T10:43:25.414Z,96506.80
2019-02-02T10:45:51.981Z,96511.09
2019-02-02T10:48:24.671Z,96514.45
2019-02-02T10:50:54.120Z,96512.69
2019-02-02T10:53:20.919Z,96515.20
2019-02-02T10:55:47.519Z,96509.98
2019-02-02T10:58:18.313Z,96507.80
2019-02-02T11:00:46.692Z,96505.06
2019-02-02T11:03:21.055Z,96494.76
2019-02-02T11:05:58.614Z,96505.11
2019-02-02T11:08:25.390Z,96512.91
2019-02-02T11:10:51.859Z,96515.16
2019-02-02T11:13:18.653Z,96515.20
2019-02-02T11:15:45.522Z,96511.87
2019-02-02T11:18:12.362Z,96519.22
2019-02-02T11:20:39.005Z,96510.20
2019-02-02T11:23:05.605Z,96517.97
2019-02-02T11:25:32.566Z,96517.48
2019-02-02T11:27:59.434Z,96512.34
2019-02-02T11:30:27.953Z,96524.50
2019-02-02T11:32:54.609Z,96536.62
2019-02-02T11:35:21.368Z,96541.36
2019-02-02T11:37:50.820Z,96553.47
2019-02-02T11:40:38.244Z,96535.36
2019-02-02T11:43:07.475Z,96535.78
2019-02-02T11:45:34.370Z,96536.62
2019-02-02T11:48:01.144Z,96535.36
2019-02-02T11:50:30.388Z,96530.77
2019-02-02T11:52:57.306Z,96527.64
2019-02-02T11:55:23.860Z,96534.04
2019-02-02T11:57:50.853Z,96531.96
2019-02-02T12:00:25.476Z,96533.66
2019-02-02T12:02:52.061Z,96535.78
2019-02-02T12:05:19.407Z,96540.91
2019-02-02T12:07:46.034Z,96538.67
2019-02-02T12:10:14.430Z,96539.52
2019-02-02T12:12:42.224Z,96538.73
2019-02-02T12:15:10.645Z,96549.02
2019-02-02T12:17:40.253Z,96545.10
2019-02-02T12:20:08.789Z,96548.54
2019-02-02T12:22:37.599Z,96548.09
2019-02-02T12:25:04.626Z,96537.27
2019-02-02T12:27:31.484Z,96543.22
2019-02-02T12:29:58.203Z,96540.49
2019-02-02T12:32:26.963Z,96539.09
2019-02-02T12:34:53.792Z,96535.17
2019-02-02T12:37:20.461Z,96526.92
2019-02-02T12:39:46.937Z,96534.98
2019-02-02T12:42:13.762Z,96539.79
2019-02-02T12:44:40.326Z,96547.63
2019-02-02T12:47:06.810Z,96556.39
2019-02-02T12:49:33.291Z,96565.97
2019-02-02T12:51:59.847Z,96562.56
2019-02-02T12:54:26.371Z,96574.86
2019-02-02T12:56:52.842Z,96584.32
2019-02-02T12:59:19.591Z,96584.01
2019-02-02T13:01:46.105Z,96586.63
2019-02-02T13:04:12.667Z,96598.41
2019-02-02T13:06:39.417Z,96601.02
2019-02-02T13:09:07.646Z,96601.02
2019-02-02T13:11:34.244Z,96602.69
2019-02-02T13:14:00.741Z,96598.34
2019-02-02T13:16:27.365Z,96606.09
2019-02-02T13:18:53.997Z,96607.33
2019-02-02T13:21:21.601Z,96606.88
2019-02-02T13:23:48.237Z,96604.70
2019-02-02T13:26:14.792Z,96615.53
2019-02-02T13:28:41.365Z,96616.48
2019-02-02T13:31:07.893Z,96616.95
2019-02-02T13:33:34.409Z,96616.45
2019-02-02T13:36:00.933Z,96619.16
2019-02-02T13:38:27.458Z,96623.86
2019-02-02T13:40:54.163Z,96625.88
2019-02-02T13:43:20.770Z,96630.17
2019-02-02T13:45:47.356Z,96631.41
2019-02-02T13:48:13.912Z,96645.09
2019-02-02T13:50:40.517Z,96644.90
2019-02-02T13:53:08.015Z,96650.86
2019-02-02T13:55:34.679Z,96654.20
2019-02-02T13:58:02.522Z,96661.05
2019-02-02T14:00:30.249Z,96664.08
2019-02-02T14:03:02.716Z,96672.77
2019-02-02T14:05:26.793Z,96675.35
2019-02-02T14:07:54.207Z,96680.84
2019-02-02T14:10:22.712Z,96678.76
2019-02-02T14:12:50.020Z,96688.30
2019-02-02T14:15:16.924Z,96700.35
2019-02-02T14:17:44.265Z,96704.23
2019-02-02T14:20:11.313Z,96708.28
2019-02-02T14:22:37.973Z,96716.07
2019-02-02T14:25:05.837Z,96720.80
2019-02-02T14:27:32.375Z,96729.98
2019-02-02T14:29:59.372Z,96729.66
2019-02-02T14:32:25.944Z,96727.95
2019-02-02T14:34:52.625Z,96731.95
2019-02-02T14:37:19.599Z,96744.45
2019-02-02T14:39:49.033Z,96736.27
2019-02-02T14:42:18.236Z,96745.80
2019-02-02T14:44:43.885Z,96751.80
2019-02-02T14:47:11.849Z,96760.44
2019-02-02T14:49:38.539Z,96762.64
2019-02-02T14:52:05.776Z,96767.98
2019-02-02T14:54:32.391Z,96772.24
2019-02-02T14:56:58.891Z,96767.53
2019-02-02T14:59:27.822Z,96768.83
2019-02-02T15:01:54.319Z,96777.49
2019-02-02T15:04:21.624Z,96774.47
2019-02-02T15:06:48.392Z,96782.20
2019-02-02T15:09:15.083Z,96786.57
2019-02-02T15:11:41.868Z,96788.75
2019-02-02T15:14:08.596Z,96804.67
2019-02-02T15:16:35.971Z,96804.75
2019-02-02T15:19:03.818Z,96815.51
2019-02-02T15:21:30.359Z,96817.73
2019-02-02T15:23:58.065Z,96821.20
2019-02-02T15:26:24.817Z,96823.78
2019-02-02T15:28:51.634Z,96827.20
2019-02-02T15:31:18.696Z,96829.76
2019-02-02T15:33:45.441Z,96834.49
2019-02-02T15:36:16.518Z,96844.42
2019-02-02T15:38:43.183Z,96851.72
2019-02-02T15:41:10.905Z,96853.01
2019-02-02T15:43:37.701Z,96851.28
2019-02-02T15:46:04.693Z,96847.81
2019-02-02T15:48:42.551Z,96856.94
2019-02-02T15:51:08.722Z,96853.11
2019-02-02T15:53:35.563Z,96864.30
2019-02-02T15:56:02.278Z,96855.71
2019-02-02T15:58:29.050Z,96870.76
2019-02-02T16:00:56.889Z,96877.27
2019-02-02T16:03:23.613Z,96877.23
2019-02-02T16:05:50.405Z,96879.42
2019-02-02T16:08:19.225Z,96883.32
2019-02-02T16:10:46.571Z,96879.91
2019-02-02T16:13:13.547Z,96881.17
2019-02-02T16:15:40.645Z,96882.47
2019-02-02T16:18:08.215Z,96884.66
2019-02-02T16:20:37.151Z,96885.59
2019-02-02T16:23:04.342Z,96898.11
2019-02-02T16:25:32.114Z,96901.98
2019-02-02T16:27:59.070Z,96908.88
2019-02-02T16:30:26.302Z,96904.19
2019-02-02T16:32:53.837Z,96908.05
2019-02-02T16:35:21.016Z,96905.48
2019-02-02T16:37:47.643Z,96905.05
2019-02-02T16:40:18.577Z,96924.84
2019-02-02T16:42:45.161Z,96929.16
2019-02-02T16:45:14.018Z,96935.65
2019-02-02T16:47:41.429Z,96942.98
2019-02-02T16:50:11.231Z,96946.86
2019-02-02T16:52:37.709Z,96950.33
2019-02-02T16:55:05.099Z,96952.91
2019-02-02T16:57:31.626Z,96963.23
2019-02-02T16:59:58.564Z,96961.50
2019-02-02T17:02:25.419Z,96961.48
2019-02-02T17:04:51.925Z,96958.50
2019-02-02T17:07:18.616Z,96963.23
2019-02-02T17:09:46.320Z,96964.94
2019-02-02T17:12:13.136Z,96965.38
2019-02-02T17:14:39.823Z,96972.26
2019-02-02T17:17:06.644Z,96971.41
2019-02-02T17:19:33.136Z,96982.62
2019-02-02T17:21:59.594Z,96976.59
2019-02-02T17:24:26.086Z,96970.11
2019-02-02T17:26:52.602Z,96973.55
2019-02-02T17:29:19.052Z,96972.26
2019-02-02T17:31:45.528Z,96971.38
2019-02-02T17:34:11.991Z,96977.80
2019-02-02T17:36:38.540Z,96983.83
2019-02-02T17:39:05.399Z,96982.13
2019-02-02T17:41:31.877Z,96992.45
2019-02-02T17:43:58.437Z,96998.06
2019-02-02T17:46:24.937Z,97007.11
2019-02-02T17:48:51.549Z,97007.53
2019-02-02T17:51:18.179Z,97009.70
2019-02-02T17:53:46.089Z,97024.77
2019-02-02T17:56:12.599Z,97029.52
2019-02-02T17:58:40.080Z,97025.20
2019-02-02T18:01:06.770Z,97021.34
2019-02-02T18:03:34.504Z,97027.80
2019-02-02T18:06:01.766Z,97035.97
2019-02-02T18:08:30.136Z,97036.84
2019-02-02T18:10:57.048Z,97039.84
2019-02-02T18:13:23.604Z,97057.53
2019-02-02T18:15:51.306Z,97055.81
2019-02-02T18:18:18.202Z,97060.11
2019-02-02T18:20:44.751Z,97063.53
2019-02-02T18:23:11.224Z,97068.70
2019-02-02T18:25:37.924Z,97071.30
2019-02-02T18:28:05.228Z,97073.42
2019-02-02T18:30:32.076Z,97075.17
2019-02-02T18:32:59.252Z,97072.17
2019-02-02T18:35:26.093Z,97078.62
2019-02-02T18:37:52.900Z,97083.82
2019-02-02T18:40:19.599Z,97096.31
2019-02-02T18:42:46.361Z,97097.60
2019-02-02T18:45:15.862Z,97099.33
2019-02-02T18:47:42.451Z,97101.48
2019-02-02T18:50:11.110Z,97105.78
2019-02-02T18:52:38.841Z,97102.77
2019-02-02T18:55:08.454Z,97100.61
2019-02-02T18:57:35.288Z,97111.78
2019-02-02T19:00:01.795Z,97104.03
2019-02-02T19:02:30.351Z,97101.01
2019-02-02T19:05:03.807Z,97101.86
2019-02-02T19:07:25.568Z,97111.75
2019-02-02T19:09:52.125Z,97121.67
2019-02-02T19:12:18.729Z,97128.14
2019-02-02T19:14:45.626Z,97137.61
2019-02-02T19:17:12.693Z,97138.48
2019-02-02T19:19:39.327Z,97132.47
2019-02-02T19:22:06.195Z,97134.63
2019-02-02T19:24:32.737Z,97133.77
2019-02-02T19:26:59.229Z,97137.63
2019-02-02T19:29:26.262Z,97134.19
2019-02-02T19:31:52.767Z,97133.75
2019-02-02T19:34:19.464Z,97142.78
2019-02-02T19:36:47.220Z,97144.95
2019-02-02T19:39:13.818Z,97147.95
2019-02-02T19:41:41.441Z,97150.55
2019-02-02T19:44:08.314Z,97149.70
2019-02-02T19:46:34.871Z,97166.07
2019-02-02T19:49:01.500Z,97178.11
2019-02-02T19:51:28.139Z,97174.64
2019-02-02T19:53:54.658Z,97186.71
2019-02-02T19:56:22.197Z,97185.84
2019-02-02T19:58:49.166Z,97188.00
2019-02-02T20:01:17.740Z,97198.77
2019-02-02T20:03:44.287Z,97200.50
2019-02-02T20:06:11.069Z,97204.37
2019-02-02T20:08:39.816Z,97208.69
2019-02-02T20:11:06.516Z,97219.44
2019-02-02T20:13:33.406Z,97214.72
2019-02-02T20:16:00.057Z,97227.22
2019-02-02T20:18:26.702Z,97231.10
2019-02-02T20:20:53.268Z,97231.08
2019-02-02T20:23:19.889Z,97233.25
2019-02-02T20:25:46.389Z,97240.58
2019-02-02T20:28:14.269Z,97241.87
2019-02-02T20:30:41.559Z,97246.19
2019-02-02T20:33:08.801Z,97248.36
2019-02-02T20:35:42.142Z,97237.58
2019-02-02T20:38:04.591Z,97241.44
2019-02-02T20:40:31.754Z,97254.80
2019-02-02T20:42:58.805Z,97260.39
2019-02-02T20:45:28.319Z,97259.52
2019-02-02T20:47:54.955Z,97261.66
2019-02-02T20:50:21.760Z,97265.12
2019-02-02T20:52:48.456Z,97272.86
2019-02-02T20:55:18.345Z,97278.89
2019-02-02T20:57:45.970Z,97273.30
2019-02-02T21:00:15.516Z,97280.17
2019-02-02T21:02:42.262Z,97289.21
2019-02-02T21:05:08.956Z,97291.80
2019-02-02T21:07:35.769Z,97293.95
2019-02-02T21:10:03.731Z,97304.73
2019-02-02T21:12:30.859Z,97309.91
2019-02-02T21:14:58.099Z,97310.33
2019-02-02T21:17:24.873Z,97322.42
2019-02-02T21:19:51.751Z,97327.17
2019-02-02T21:22:18.350Z,97324.16
2019-02-02T21:24:45.278Z,97334.09
2019-02-02T21:27:12.002Z,97335.38
2019-02-02T21:29:39.402Z,97335.36
2019-02-02T21:32:06.001Z,97329.79
2019-02-02T21:34:33.114Z,97341.86
2019-02-02T21:36:59.835Z,97340.57
2019-02-02T21:39:26.405Z,97343.61
2019-02-02T21:41:53.863Z,97351.36
2019-02-02T21:44:20.783Z,97347.48
2019-02-02T21:46:47.930Z,97355.24
2019-02-02T21:49:14.838Z,97357.34
2019-02-02T21:51:46.601Z,97363.79
2019-02-02T21:54:13.287Z,97366.77
2019-02-02T21:56:40.104Z,97367.11
2019-02-02T21:59:07.809Z,97371.41
2019-02-02T22:01:34.707Z,97370.51
2019-02-02T22:04:01.970Z,97371.79
2019-02-02T22:06:28.553Z,97378.68
2019-02-02T22:08:55.885Z,97382.98
2019-02-02T22:11:22.766Z,97393.33
2019-02-02T22:13:49.366Z,97388.58
2019-02-02T22:16:16.018Z,97395.03
2019-02-02T22:18:42.825Z,97407.12
2019-02-02T22:21:09.802Z,97411.44
2019-02-02T22:23:36.259Z,97415.78
2019-02-02T22:26:03.065Z,97427.88
2019-02-02T22:28:29.591Z,97429.17
2019-02-02T22:30:56.066Z,97433.07
2019-02-02T22:33:22.990Z,97434.85
2019-02-02T22:35:49.588Z,97445.66
2019-02-02T22:38:16.253Z,97438.33
2019-02-02T22:40:42.772Z,97444.79
2019-02-02T22:43:12.180Z,97442.19
2019-02-02T22:45:38.732Z,97441.72
2019-02-02T22:48:05.866Z,97444.72
2019-02-02T22:50:33.380Z,97443.45
2019-02-02T22:52:59.889Z,97450.77
2019-02-02T22:55:26.344Z,97455.52
2019-02-02T22:57:53.354Z,97461.55
2019-02-02T23:00:56.465Z,97469.36
2019-02-02T23:03:35.044Z,97474.11
2019-02-02T23:06:39.552Z,97470.71
2019-02-02T23:10:02.513Z,97475.45
2019-02-02T23:12:54.495Z,97481.93
2019-02-02T23:15:34.811Z,97487.97
2019-02-02T23:18:01.453Z,97503.93
2019-02-02T23:20:28.275Z,97508.66
2019-02-02T23:22:55.062Z,97502.23
2019-02-02T23:25:22.097Z,97517.73
2019-02-02T23:27:48.555Z,97506.54
2019-02-02T23:30:16.020Z,97514.30
2019-02-02T23:32:43.015Z,97514.30
2019-02-02T23:35:09.575Z,97513.88
2019-02-02T23:37:36.285Z,97511.25
2019-02-02T23:40:03.916Z,97504.77
2019-02-02T23:42:30.602Z,97506.51
2019-02-02T23:44:57.097Z,97507.35
2019-02-02T23:47:23.794Z,97500.91
2019-02-02T23:49:50.249Z,97503.47
2019-02-02T23:52:17.017Z,97511.25
2019-02-02T23:54:44.601Z,97507.38
2019-02-02T23:57:11.107Z,97510.80
2019-02-02T23:59:37.985Z,97504.78
